createdAt,value
2018-05-17T00:00:04.747Z,0
2018-05-17T00:01:07.171Z,0
2018-05-17T00:02:09.212Z,0
2018-05-17T00:03:11.249Z,0
2018-05-17T00:04:13.294Z,0
2018-05-17T00:05:15.624Z,0
2018-05-17T00:06:17.655Z,0
2018-05-17T00:07:19.701Z,0
2018-05-17T00:08:21.736Z,0
2018-05-17T00:09:23.768Z,0
2018-05-17T00:10:26.199Z,0
2018-05-17T00:11:28.270Z,0
2018-05-17T00:12:30.284Z,0
2018-05-17T00:13:32.318Z,0
2018-05-17T00:14:34.636Z,0
2018-05-17T00:15:36.685Z,0
2018-05-17T00:16:38.723Z,0
2018-05-17T00:17:40.765Z,0
2018-05-17T00:18:42.803Z,0
2018-05-17T00:19:44.836Z,0
2018-05-17T00:20:47.159Z,0
2018-05-17T00:21:49.203Z,0
2018-05-17T00:22:51.258Z,0
2018-05-17T00:23:53.678Z,0
2018-05-17T00:24:55.718Z,0
2018-05-17T00:25:58.045Z,0
2018-05-17T00:27:00.368Z,0
2018-05-17T00:28:02.789Z,0
2018-05-17T00:29:04.821Z,0
2018-05-17T00:30:06.910Z,0
2018-05-17T00:31:08.899Z,0
2018-05-17T00:32:11.241Z,0
2018-05-17T00:33:13.282Z,0
2018-05-17T00:34:15.588Z,0
2018-05-17T00:35:17.919Z,0
2018-05-17T00:36:19.955Z,0
2018-05-17T00:37:22.272Z,0
2018-05-17T00:38:24.307Z,0
2018-05-17T00:39:26.633Z,0
2018-05-17T00:40:28.672Z,0
2018-05-17T00:41:30.997Z,0
2018-05-17T00:42:33.319Z,0
2018-05-17T00:43:35.363Z,0
2018-05-17T00:44:37.687Z,0
2018-05-17T00:45:39.726Z,0
2018-05-17T00:46:42.044Z,0
2018-05-17T00:47:44.086Z,0
2018-05-17T00:48:46.127Z,0
2018-05-17T00:49:48.206Z,0
2018-05-17T00:50:50.194Z,0
2018-05-17T00:51:52.238Z,0
2018-05-17T00:52:54.278Z,0
2018-05-17T00:53:56.315Z,0
2018-05-17T00:54:58.637Z,0
2018-05-17T00:56:00.675Z,0
2018-05-17T00:57:02.707Z,0
2018-05-17T00:58:04.754Z,0
2018-05-17T00:59:06.792Z,0
2018-05-17T01:00:08.833Z,0
2018-05-17T01:01:10.868Z,0
2018-05-17T01:02:12.907Z,0
2018-05-17T01:03:15.248Z,0
2018-05-17T01:04:17.284Z,0
2018-05-17T01:05:19.315Z,0
2018-05-17T01:06:21.627Z,0
2018-05-17T01:07:23.675Z,0
2018-05-17T01:08:25.714Z,0
2018-05-17T01:09:27.752Z,0
2018-05-17T01:10:29.794Z,0
2018-05-17T01:11:31.826Z,0
2018-05-17T01:12:33.870Z,0
2018-05-17T01:13:35.908Z,0
2018-05-17T01:14:37.933Z,0
2018-05-17T01:15:40.361Z,0
2018-05-17T01:16:42.388Z,0
2018-05-17T01:17:44.719Z,0
2018-05-17T01:18:46.752Z,0
2018-05-17T01:19:48.790Z,0
2018-05-17T01:20:50.828Z,0
2018-05-17T01:21:52.857Z,0
2018-05-17T01:22:54.905Z,0
2018-05-17T01:23:56.937Z,0
2018-05-17T01:24:58.970Z,0
2018-05-17T01:26:01.006Z,0
2018-05-17T01:27:03.056Z,0
2018-05-17T01:28:05.383Z,0
2018-05-17T01:29:07.411Z,0
2018-05-17T01:30:09.449Z,0
2018-05-17T01:31:11.497Z,0
2018-05-17T01:32:13.824Z,0
2018-05-17T01:33:15.856Z,0
2018-05-17T01:34:17.889Z,0
2018-05-17T01:35:19.931Z,0
2018-05-17T01:36:22.344Z,0
2018-05-17T01:37:24.385Z,0
2018-05-17T01:38:26.825Z,0
2018-05-17T01:39:29.252Z,0
2018-05-17T01:40:31.575Z,0
2018-05-17T01:41:33.914Z,0
2018-05-17T01:42:36.236Z,0
2018-05-17T01:43:38.270Z,0
2018-05-17T01:44:40.307Z,0
2018-05-17T01:45:42.339Z,0
2018-05-17T01:46:44.379Z,0
2018-05-17T01:47:46.434Z,0
2018-05-17T01:48:48.463Z,0
2018-05-17T01:49:50.501Z,0
2018-05-17T01:50:52.545Z,0
2018-05-17T01:51:54.578Z,0
2018-05-17T01:52:56.617Z,0
2018-05-17T01:53:58.647Z,0
2018-05-17T01:55:00.692Z,0
2018-05-17T01:56:03.024Z,0
2018-05-17T01:57:05.347Z,0
2018-05-17T01:58:07.388Z,0
2018-05-17T01:59:10.021Z,0
2018-05-17T02:00:12.418Z,0
2018-05-17T02:01:14.419Z,0
2018-05-17T02:02:16.452Z,0
2018-05-17T02:03:18.497Z,0
2018-05-17T02:04:20.528Z,0
2018-05-17T02:05:22.575Z,0
2018-05-17T02:06:24.616Z,0
2018-05-17T02:07:26.653Z,0
2018-05-17T02:08:28.691Z,0
2018-05-17T02:09:30.725Z,0
2018-05-17T02:10:32.761Z,0
2018-05-17T02:11:35.114Z,0
2018-05-17T02:12:37.530Z,0
2018-05-17T02:13:39.565Z,0
2018-05-17T02:14:41.603Z,0
2018-05-17T02:15:43.944Z,0
2018-05-17T02:16:45.966Z,0
2018-05-17T02:17:48.005Z,0
2018-05-17T02:18:50.329Z,0
2018-05-17T02:19:52.657Z,0
2018-05-17T02:20:54.685Z,0
2018-05-17T02:21:56.723Z,0
2018-05-17T02:22:58.756Z,0
2018-05-17T02:24:00.791Z,0
2018-05-17T02:25:03.213Z,0
2018-05-17T02:26:05.816Z,0
2018-05-17T02:27:07.859Z,0
2018-05-17T02:28:10.193Z,0
2018-05-17T02:29:12.231Z,0
2018-05-17T02:30:14.953Z,0
2018-05-17T02:31:16.991Z,0
2018-05-17T02:32:19.617Z,0
2018-05-17T02:33:21.952Z,0
2018-05-17T02:34:24.270Z,0
2018-05-17T02:35:26.612Z,0
2018-05-17T02:36:28.643Z,0
2018-05-17T02:37:30.679Z,0
2018-05-17T02:38:33.101Z,0
2018-05-17T02:39:35.146Z,0
2018-05-17T02:40:37.788Z,0
2018-05-17T02:41:39.818Z,0
2018-05-17T02:42:41.857Z,0
2018-05-17T02:43:43.893Z,0
2018-05-17T02:44:45.924Z,0
2018-05-17T02:45:48.933Z,0
2018-05-17T02:46:51.264Z,0
2018-05-17T02:47:53.306Z,0
2018-05-17T02:48:55.346Z,0
2018-05-17T02:49:57.661Z,0
2018-05-17T02:50:59.709Z,0
2018-05-17T02:52:02.034Z,0
2018-05-17T02:53:04.067Z,0
2018-05-17T02:54:06.505Z,0
2018-05-17T02:55:08.938Z,0
2018-05-17T02:56:10.972Z,0
2018-05-17T02:57:13.310Z,0
2018-05-17T02:58:15.344Z,0
2018-05-17T02:59:17.379Z,0
2018-05-17T03:00:19.711Z,0
2018-05-17T03:01:22.320Z,0
2018-05-17T03:02:24.355Z,0
2018-05-17T03:03:26.393Z,0
2018-05-17T03:04:28.711Z,1
2018-05-17T03:05:30.744Z,1
2018-05-17T03:06:32.788Z,1
2018-05-17T03:07:34.818Z,1
2018-05-17T03:08:37.174Z,1
2018-05-17T03:09:39.490Z,1
2018-05-17T03:10:41.920Z,1
2018-05-17T03:11:43.959Z,1
2018-05-17T03:12:46.268Z,1
2018-05-17T03:13:48.693Z,2
2018-05-17T03:14:51.397Z,2
2018-05-17T03:15:53.438Z,2
2018-05-17T03:16:55.768Z,2
2018-05-17T03:17:57.795Z,2
2018-05-17T03:18:59.834Z,2
2018-05-17T03:20:02.142Z,3
2018-05-17T03:21:04.174Z,3
2018-05-17T03:22:06.210Z,3
2018-05-17T03:23:08.258Z,3
2018-05-17T03:24:10.294Z,3
2018-05-17T03:25:12.331Z,4
2018-05-17T03:26:14.647Z,4
2018-05-17T03:27:16.686Z,4
2018-05-17T03:28:18.716Z,4
2018-05-17T03:29:21.059Z,5
2018-05-17T03:30:23.092Z,5
2018-05-17T03:31:25.527Z,5
2018-05-17T03:32:27.943Z,6
2018-05-17T03:33:29.973Z,6
2018-05-17T03:34:32.009Z,6
2018-05-17T03:35:34.044Z,6
2018-05-17T03:36:36.073Z,7
2018-05-17T03:37:38.110Z,7
2018-05-17T03:38:40.157Z,7
2018-05-17T03:39:42.200Z,7
2018-05-17T03:40:44.239Z,8
2018-05-17T03:41:46.265Z,8
2018-05-17T03:42:48.293Z,8
2018-05-17T03:43:50.330Z,9
2018-05-17T03:44:52.364Z,9
2018-05-17T03:45:54.701Z,9
2018-05-17T03:46:56.739Z,9
2018-05-17T03:47:58.786Z,10
2018-05-17T03:49:01.405Z,10
2018-05-17T03:50:03.782Z,10
2018-05-17T03:51:05.818Z,11
2018-05-17T03:52:07.858Z,11
2018-05-17T03:53:10.194Z,11
2018-05-17T03:54:12.514Z,12
2018-05-17T03:55:14.552Z,12
2018-05-17T03:56:16.590Z,12
2018-05-17T03:57:18.620Z,13
2018-05-17T03:58:20.658Z,13
2018-05-17T03:59:22.688Z,13
2018-05-17T04:00:24.728Z,14
2018-05-17T04:01:26.756Z,14
2018-05-17T04:02:28.794Z,14
2018-05-17T04:03:31.122Z,15
2018-05-17T04:04:33.155Z,15
2018-05-17T04:05:35.338Z,15
2018-05-17T04:06:37.381Z,16
2018-05-17T04:07:39.408Z,16
2018-05-17T04:08:41.524Z,16
2018-05-17T04:09:43.482Z,17
2018-05-17T04:10:45.524Z,17
2018-05-17T04:11:47.556Z,18
2018-05-17T04:12:49.597Z,18
2018-05-17T04:13:52.140Z,18
2018-05-17T04:14:54.353Z,19
2018-05-17T04:15:56.388Z,19
2018-05-17T04:16:58.420Z,19
2018-05-17T04:18:00.456Z,19
2018-05-17T04:19:02.884Z,19
2018-05-17T04:20:05.212Z,20
2018-05-17T04:21:07.244Z,20
2018-05-17T04:22:09.267Z,21
2018-05-17T04:23:11.300Z,21
2018-05-17T04:24:13.735Z,22
2018-05-17T04:25:15.768Z,23
2018-05-17T04:26:18.089Z,23
2018-05-17T04:27:20.122Z,24
2018-05-17T04:28:22.149Z,23
2018-05-17T04:29:24.176Z,24
2018-05-17T04:30:26.209Z,24
2018-05-17T04:31:28.250Z,25
2018-05-17T04:32:30.285Z,25
2018-05-17T04:33:32.619Z,25
2018-05-17T04:34:34.653Z,26
2018-05-17T04:35:36.684Z,26
2018-05-17T04:36:39.109Z,26
2018-05-17T04:37:41.141Z,28
2018-05-17T04:38:43.171Z,28
2018-05-17T04:39:45.211Z,29
2018-05-17T04:40:47.229Z,31
2018-05-17T04:41:49.264Z,29
2018-05-17T04:42:51.597Z,31
2018-05-17T04:43:53.631Z,30
2018-05-17T04:44:55.665Z,29
2018-05-17T04:45:57.705Z,30
2018-05-17T04:46:59.754Z,31
2018-05-17T04:48:02.153Z,30
2018-05-17T04:49:04.196Z,31
2018-05-17T04:50:06.248Z,32
2018-05-17T04:51:08.281Z,30
2018-05-17T04:52:10.314Z,31
2018-05-17T04:53:12.350Z,31
2018-05-17T04:54:14.684Z,33
2018-05-17T04:55:16.711Z,36
2018-05-17T04:56:18.748Z,34
2018-05-17T04:57:20.792Z,34
2018-05-17T04:58:23.202Z,36
2018-05-17T04:59:25.623Z,36
2018-05-17T05:00:27.660Z,36
2018-05-17T05:01:29.691Z,36
2018-05-17T05:02:31.760Z,36
2018-05-17T05:03:34.138Z,37
2018-05-17T05:04:36.191Z,39
2018-05-17T05:05:38.225Z,40
2018-05-17T05:06:40.257Z,38
2018-05-17T05:07:42.286Z,41
2018-05-17T05:08:44.315Z,41
2018-05-17T05:09:46.351Z,40
2018-05-17T05:10:48.684Z,41
2018-05-17T05:11:50.711Z,42
2018-05-17T05:12:52.757Z,42
2018-05-17T05:13:54.783Z,40
2018-05-17T05:14:56.811Z,42
2018-05-17T05:15:58.860Z,44
2018-05-17T05:17:00.889Z,43
2018-05-17T05:18:02.925Z,45
2018-05-17T05:19:04.966Z,42
2018-05-17T05:20:06.997Z,42
2018-05-17T05:21:09.034Z,44
2018-05-17T05:22:11.059Z,44
2018-05-17T05:23:13.101Z,42
2018-05-17T05:24:15.136Z,42
2018-05-17T05:25:17.582Z,42
2018-05-17T05:26:19.522Z,42
2018-05-17T05:27:21.557Z,44
2018-05-17T05:28:23.590Z,45
2018-05-17T05:29:25.631Z,47
2018-05-17T05:30:27.654Z,47
2018-05-17T05:31:29.753Z,48
2018-05-17T05:32:31.722Z,48
2018-05-17T05:33:33.756Z,48
2018-05-17T05:34:35.792Z,51
2018-05-17T05:35:37.819Z,44
2018-05-17T05:36:39.854Z,43
2018-05-17T05:37:42.389Z,45
2018-05-17T05:38:44.416Z,45
2018-05-17T05:39:46.759Z,48
2018-05-17T05:40:48.791Z,51
2018-05-17T05:41:50.828Z,55
2018-05-17T05:42:52.862Z,49
2018-05-17T05:43:54.896Z,51
2018-05-17T05:44:57.230Z,52
2018-05-17T05:45:59.264Z,52
2018-05-17T05:47:01.292Z,51
2018-05-17T05:48:03.334Z,53
2018-05-17T05:49:06.092Z,55
2018-05-17T05:50:08.123Z,52
2018-05-17T05:51:10.159Z,52
2018-05-17T05:52:12.194Z,52
2018-05-17T05:53:14.531Z,58
2018-05-17T05:54:16.563Z,59
2018-05-17T05:55:18.878Z,56
2018-05-17T05:56:21.324Z,57
2018-05-17T05:57:23.361Z,65
2018-05-17T05:58:25.399Z,67
2018-05-17T05:59:27.437Z,65
2018-05-17T06:00:29.479Z,64
2018-05-17T06:01:31.516Z,60
2018-05-17T06:02:33.550Z,55
2018-05-17T06:03:35.877Z,54
2018-05-17T06:04:37.913Z,56
2018-05-17T06:05:39.935Z,57
2018-05-17T06:06:42.253Z,56
2018-05-17T06:07:44.291Z,58
2018-05-17T06:08:46.334Z,56
2018-05-17T06:09:48.656Z,57
2018-05-17T06:10:50.698Z,55
2018-05-17T06:11:52.735Z,51
2018-05-17T06:12:54.781Z,52
2018-05-17T06:13:56.812Z,54
2018-05-17T06:14:58.842Z,54
2018-05-17T06:16:00.878Z,60
2018-05-17T06:17:02.911Z,60
2018-05-17T06:18:04.961Z,57
2018-05-17T06:19:07.004Z,57
2018-05-17T06:20:09.723Z,56
2018-05-17T06:21:12.047Z,56
2018-05-17T06:22:14.093Z,57
2018-05-17T06:23:16.129Z,56
2018-05-17T06:24:18.164Z,56
2018-05-17T06:25:20.204Z,58
2018-05-17T06:26:22.247Z,59
2018-05-17T06:27:24.266Z,60
2018-05-17T06:28:26.304Z,60
2018-05-17T06:29:28.335Z,63
2018-05-17T06:30:30.891Z,66
2018-05-17T06:31:33.333Z,65
2018-05-17T06:32:35.371Z,64
2018-05-17T06:33:37.406Z,66
2018-05-17T06:34:39.443Z,70
2018-05-17T06:35:41.863Z,65
2018-05-17T06:36:44.197Z,66
2018-05-17T06:37:46.233Z,68
2018-05-17T06:38:48.271Z,68
2018-05-17T06:39:50.302Z,64
2018-05-17T06:40:52.336Z,65
2018-05-17T06:41:54.363Z,65
2018-05-17T06:42:56.396Z,63
2018-05-17T06:43:58.504Z,64
2018-05-17T06:45:00.477Z,65
2018-05-17T06:46:02.511Z,64
2018-05-17T06:47:04.842Z,63
2018-05-17T06:48:06.887Z,62
2018-05-17T06:49:08.924Z,62
2018-05-17T06:50:10.958Z,61
2018-05-17T06:51:12.995Z,61
2018-05-17T06:52:15.025Z,63
2018-05-17T06:53:17.071Z,64
2018-05-17T06:54:19.498Z,66
2018-05-17T06:55:21.815Z,67
2018-05-17T06:56:24.520Z,68
2018-05-17T06:57:26.846Z,73
2018-05-17T06:58:29.162Z,75
2018-05-17T06:59:31.206Z,75
2018-05-17T07:00:33.614Z,75
2018-05-17T07:01:35.597Z,73
2018-05-17T07:02:37.630Z,72
2018-05-17T07:03:39.669Z,73
2018-05-17T07:04:41.703Z,72
2018-05-17T07:05:43.793Z,72
2018-05-17T07:06:45.838Z,73
2018-05-17T07:07:47.874Z,71
2018-05-17T07:08:49.912Z,71
2018-05-17T07:09:52.252Z,69
2018-05-17T07:10:54.284Z,69
2018-05-17T07:11:57.006Z,68
2018-05-17T07:12:59.040Z,70
2018-05-17T07:14:01.080Z,70
2018-05-17T07:15:03.805Z,75
2018-05-17T07:16:05.836Z,76
2018-05-17T07:17:07.867Z,75
2018-05-17T07:18:10.228Z,74
2018-05-17T07:19:12.338Z,74
2018-05-17T07:20:14.373Z,80
2018-05-17T07:21:16.405Z,86
2018-05-17T07:22:18.442Z,89
2018-05-17T07:23:20.767Z,87
2018-05-17T07:24:22.805Z,79
2018-05-17T07:25:25.250Z,78
2018-05-17T07:26:27.281Z,79
2018-05-17T07:27:29.323Z,88
2018-05-17T07:28:31.361Z,83
2018-05-17T07:29:33.703Z,80
2018-05-17T07:30:35.751Z,79
2018-05-17T07:31:37.801Z,79
2018-05-17T07:32:39.834Z,78
2018-05-17T07:33:42.186Z,75
2018-05-17T07:34:44.229Z,76
2018-05-17T07:35:46.272Z,75
2018-05-17T07:36:48.308Z,74
2018-05-17T07:37:50.342Z,77
2018-05-17T07:38:52.770Z,77
2018-05-17T07:39:54.809Z,78
2018-05-17T07:40:56.852Z,78
2018-05-17T07:41:59.200Z,80
2018-05-17T07:43:01.231Z,81
2018-05-17T07:44:03.282Z,82
2018-05-17T07:45:05.593Z,84
2018-05-17T07:46:07.924Z,84
2018-05-17T07:47:10.032Z,84
2018-05-17T07:48:11.999Z,86
2018-05-17T07:49:14.036Z,84
2018-05-17T07:50:16.078Z,84
2018-05-17T07:51:18.112Z,85
2018-05-17T07:52:20.158Z,86
2018-05-17T07:53:22.196Z,86
2018-05-17T07:54:24.239Z,86
2018-05-17T07:55:26.558Z,84
2018-05-17T07:56:28.599Z,84
2018-05-17T07:57:30.942Z,84
2018-05-17T07:58:32.986Z,85
2018-05-17T07:59:35.412Z,86
2018-05-17T08:00:37.567Z,86
2018-05-17T08:01:39.487Z,87
2018-05-17T08:02:41.541Z,88
2018-05-17T08:03:43.883Z,89
2018-05-17T08:04:45.973Z,90
2018-05-17T08:05:48.314Z,90
2018-05-17T08:06:51.432Z,91
2018-05-17T08:07:54.358Z,93
2018-05-17T08:08:56.421Z,97
2018-05-17T08:09:58.533Z,101
2018-05-17T08:11:03.759Z,100
2018-05-17T08:12:05.846Z,96
2018-05-17T08:13:12.032Z,95
2018-05-17T08:14:14.110Z,96
2018-05-17T08:15:16.146Z,98
2018-05-17T08:16:18.197Z,103
2018-05-17T08:17:20.235Z,157
2018-05-17T08:18:22.276Z,184
2018-05-17T08:19:24.608Z,169
2018-05-17T08:20:28.577Z,166
2018-05-17T08:21:32.597Z,168
2018-05-17T08:22:35.386Z,158
2018-05-17T08:23:37.435Z,167
2018-05-17T08:24:41.173Z,163
2018-05-17T08:25:44.825Z,167
2018-05-17T08:26:46.878Z,155
2018-05-17T08:27:49.230Z,209
2018-05-17T08:28:52.004Z,314
2018-05-17T08:29:54.383Z,335
2018-05-17T08:30:56.427Z,314
2018-05-17T08:31:58.853Z,318
2018-05-17T08:33:01.172Z,330
2018-05-17T08:34:03.503Z,349
2018-05-17T08:35:05.571Z,325
2018-05-17T08:36:08.029Z,308
2018-05-17T08:37:10.252Z,331
2018-05-17T08:38:12.302Z,354
2018-05-17T08:39:14.335Z,360
2018-05-17T08:40:16.383Z,349
2018-05-17T08:41:18.425Z,335
2018-05-17T08:42:20.629Z,327
2018-05-17T08:43:22.840Z,350
2018-05-17T08:44:24.924Z,362
2018-05-17T08:45:26.969Z,367
2018-05-17T08:46:29.398Z,391
2018-05-17T08:47:31.427Z,428
2018-05-17T08:48:33.469Z,448
2018-05-17T08:49:35.523Z,460
2018-05-17T08:50:37.561Z,461
2018-05-17T08:51:39.609Z,458
2018-05-17T08:52:41.649Z,443
2018-05-17T08:53:43.724Z,419
2018-05-17T08:54:46.053Z,404
2018-05-17T08:55:48.099Z,377
2018-05-17T08:56:51.717Z,430
2018-05-17T08:57:57.757Z,450
2018-05-17T08:59:00.108Z,444
2018-05-17T09:00:02.574Z,442
2018-05-17T09:01:04.624Z,404
2018-05-17T09:02:06.797Z,402
2018-05-17T09:03:08.848Z,403
2018-05-17T09:04:10.892Z,460
2018-05-17T09:05:12.935Z,464
2018-05-17T09:06:15.036Z,458
2018-05-17T09:07:17.011Z,475
2018-05-17T09:08:19.366Z,438
2018-05-17T09:09:21.410Z,423
2018-05-17T09:10:23.914Z,449
2018-05-17T09:11:26.087Z,438
2018-05-17T09:12:28.409Z,413
2018-05-17T09:13:30.701Z,444
2018-05-17T09:14:33.144Z,453
2018-05-17T09:15:35.399Z,448
2018-05-17T09:16:37.446Z,415
2018-05-17T09:17:39.485Z,400
2018-05-17T09:18:41.831Z,475
2018-05-17T09:19:43.868Z,510
2018-05-17T09:20:45.923Z,473
2018-05-17T09:21:49.177Z,472
2018-05-17T09:22:51.614Z,474
2018-05-17T09:23:53.952Z,497
2018-05-17T09:24:56.159Z,536
2018-05-17T09:25:58.483Z,481
2018-05-17T09:27:00.814Z,474
2018-05-17T09:28:02.865Z,488
2018-05-17T09:29:04.953Z,481
2018-05-17T09:30:07.252Z,498
2018-05-17T09:31:09.600Z,448
2018-05-17T09:32:11.635Z,466
2018-05-17T09:33:13.681Z,470
2018-05-17T09:34:15.721Z,484
2018-05-17T09:35:17.764Z,494
2018-05-17T09:36:19.810Z,530
2018-05-17T09:37:22.255Z,546
2018-05-17T09:38:24.290Z,512
2018-05-17T09:39:26.348Z,491
2018-05-17T09:40:28.770Z,464
2018-05-17T09:41:31.321Z,472
2018-05-17T09:42:33.275Z,504
2018-05-17T09:43:35.317Z,540
2018-05-17T09:44:37.369Z,532
2018-05-17T09:45:39.420Z,511
2018-05-17T09:46:41.459Z,492
2018-05-17T09:47:43.567Z,490
2018-05-17T09:48:45.546Z,469
2018-05-17T09:49:47.602Z,525
2018-05-17T09:50:49.642Z,539
2018-05-17T09:51:51.689Z,535
2018-05-17T09:52:53.790Z,554
2018-05-17T09:53:56.127Z,533
2018-05-17T09:54:58.591Z,501
2018-05-17T09:56:00.562Z,536
2018-05-17T09:57:02.613Z,525
2018-05-17T09:58:04.972Z,508
2018-05-17T09:59:07.311Z,578
2018-05-17T10:00:09.358Z,583
2018-05-17T10:01:11.405Z,583
2018-05-17T10:02:13.450Z,540
2018-05-17T10:03:15.503Z,504
2018-05-17T10:04:17.932Z,554
2018-05-17T10:05:19.995Z,571
2018-05-17T10:06:22.323Z,697
2018-05-17T10:07:24.377Z,572
2018-05-17T10:08:26.421Z,591
2018-05-17T10:09:28.761Z,597
2018-05-17T10:10:31.114Z,571
2018-05-17T10:11:33.166Z,550
2018-05-17T10:12:35.208Z,576
2018-05-17T10:13:37.251Z,594
2018-05-17T10:14:39.371Z,620
2018-05-17T10:15:41.358Z,572
2018-05-17T10:16:43.405Z,561
2018-05-17T10:17:45.461Z,594
2018-05-17T10:18:47.509Z,548
2018-05-17T10:19:49.558Z,571
2018-05-17T10:20:51.606Z,628
2018-05-17T10:21:53.752Z,543
2018-05-17T10:22:55.707Z,515
2018-05-17T10:23:57.758Z,518
2018-05-17T10:24:59.810Z,579
2018-05-17T10:26:01.867Z,524
2018-05-17T10:27:03.917Z,429
2018-05-17T10:28:05.965Z,556
2018-05-17T10:29:08.025Z,534
2018-05-17T10:30:10.216Z,517
2018-05-17T10:31:12.263Z,540
2018-05-17T10:32:14.315Z,579
2018-05-17T10:33:16.361Z,566
2018-05-17T10:34:18.417Z,532
2018-05-17T10:35:20.467Z,526
2018-05-17T10:36:22.794Z,522
2018-05-17T10:37:24.841Z,529
2018-05-17T10:38:26.902Z,578
2018-05-17T10:39:29.261Z,631
2018-05-17T10:40:31.296Z,572
2018-05-17T10:41:33.725Z,564
2018-05-17T10:42:36.085Z,629
2018-05-17T10:43:38.146Z,603
2018-05-17T10:44:40.186Z,530
2018-05-17T10:45:42.249Z,625
2018-05-17T10:46:44.296Z,544
2018-05-17T10:47:46.347Z,477
2018-05-17T10:48:48.699Z,551
2018-05-17T10:49:50.748Z,588
2018-05-17T10:50:52.790Z,519
2018-05-17T10:51:54.844Z,501
2018-05-17T10:52:56.873Z,563
2018-05-17T10:53:58.931Z,521
2018-05-17T10:55:01.150Z,458
2018-05-17T10:56:03.496Z,546
2018-05-17T10:57:05.941Z,555
2018-05-17T10:58:08.005Z,570
2018-05-17T10:59:10.371Z,560
2018-05-17T11:00:12.456Z,470
2018-05-17T11:01:14.521Z,557
2018-05-17T11:02:16.571Z,580
2018-05-17T11:03:18.608Z,541
2018-05-17T11:04:21.052Z,563
2018-05-17T11:05:23.117Z,630
2018-05-17T11:06:25.230Z,591
2018-05-17T11:07:27.272Z,617
2018-05-17T11:08:29.326Z,649
2018-05-17T11:09:31.367Z,611
2018-05-17T11:10:33.721Z,593
2018-05-17T11:11:35.774Z,575
2018-05-17T11:12:37.837Z,585
2018-05-17T11:13:40.284Z,611
2018-05-17T11:14:42.337Z,658
2018-05-17T11:15:44.679Z,652
2018-05-17T11:16:46.735Z,647
2018-05-17T11:17:48.778Z,683
2018-05-17T11:18:50.840Z,685
2018-05-17T11:19:52.891Z,638
2018-05-17T11:20:54.939Z,619
2018-05-17T11:21:56.992Z,646
2018-05-17T11:22:59.042Z,622
2018-05-17T11:24:01.375Z,525
2018-05-17T11:25:03.731Z,555
2018-05-17T11:26:05.791Z,612
2018-05-17T11:27:07.844Z,581
2018-05-17T11:28:09.890Z,574
2018-05-17T11:29:11.944Z,521
2018-05-17T11:30:13.987Z,504
2018-05-17T11:31:16.424Z,505
2018-05-17T11:32:18.472Z,564
2018-05-17T11:33:20.523Z,552
2018-05-17T11:34:22.573Z,584
2018-05-17T11:35:24.627Z,588
2018-05-17T11:36:26.671Z,547
2018-05-17T11:37:28.739Z,532
2018-05-17T11:38:30.800Z,518
2018-05-17T11:39:33.136Z,590
2018-05-17T11:40:35.195Z,596
2018-05-17T11:41:37.241Z,621
2018-05-17T11:42:39.298Z,686
2018-05-17T11:43:41.363Z,585
2018-05-17T11:44:43.402Z,559
2018-05-17T11:45:45.459Z,553
2018-05-17T11:46:47.502Z,515
2018-05-17T11:47:49.551Z,527
2018-05-17T11:48:51.610Z,553
2018-05-17T11:49:53.662Z,573
2018-05-17T11:50:55.707Z,537
2018-05-17T11:51:57.765Z,488
2018-05-17T11:52:59.816Z,488
2018-05-17T11:54:01.880Z,552
2018-05-17T11:55:03.941Z,349
2018-05-17T11:56:06.276Z,560
2018-05-17T11:57:08.321Z,566
2018-05-17T11:58:10.372Z,502
2018-05-17T11:59:12.434Z,463
2018-05-17T12:00:14.478Z,496
2018-05-17T12:01:16.537Z,546
2018-05-17T12:02:19.178Z,529
2018-05-17T12:03:21.519Z,498
2018-05-17T12:04:23.869Z,524
2018-05-17T12:05:26.497Z,499
2018-05-17T12:06:28.846Z,457
2018-05-17T12:07:30.912Z,397
2018-05-17T12:08:32.940Z,435
2018-05-17T12:09:34.998Z,409
2018-05-17T12:10:37.077Z,383
2018-05-17T12:11:39.429Z,385
2018-05-17T12:12:41.480Z,414
2018-05-17T12:13:43.542Z,459
2018-05-17T12:14:45.584Z,459
2018-05-17T12:15:47.635Z,478
2018-05-17T12:16:49.687Z,448
2018-05-17T12:17:51.757Z,470
2018-05-17T12:18:53.803Z,478
2018-05-17T12:19:56.264Z,441
2018-05-17T12:20:58.314Z,443
2018-05-17T12:22:00.374Z,508
2018-05-17T12:23:02.454Z,539
2018-05-17T12:24:04.761Z,523
2018-05-17T12:25:06.823Z,465
2018-05-17T12:26:09.260Z,531
2018-05-17T12:27:11.300Z,578
2018-05-17T12:28:13.354Z,608
2018-05-17T12:29:15.410Z,570
2018-05-17T12:30:18.098Z,503
2018-05-17T12:31:20.113Z,530
2018-05-17T12:32:22.171Z,557
2018-05-17T12:33:24.600Z,514
2018-05-17T12:34:26.655Z,463
2018-05-17T12:35:28.708Z,528
2018-05-17T12:36:31.044Z,588
2018-05-17T12:37:33.382Z,507
2018-05-17T12:38:35.438Z,503
2018-05-17T12:39:37.490Z,507
2018-05-17T12:40:39.545Z,478
2018-05-17T12:41:41.599Z,516
2018-05-17T12:42:43.747Z,535
2018-05-17T12:43:45.695Z,515
2018-05-17T12:44:47.747Z,445
2018-05-17T12:45:49.799Z,394
2018-05-17T12:46:51.843Z,418
2018-05-17T12:47:53.896Z,440
2018-05-17T12:48:56.260Z,433
2018-05-17T12:49:58.608Z,383
2018-05-17T12:51:00.658Z,397
2018-05-17T12:52:02.714Z,437
2018-05-17T12:53:05.151Z,454
2018-05-17T12:54:07.892Z,477
2018-05-17T12:55:09.947Z,498
2018-05-17T12:56:11.991Z,485
2018-05-17T12:57:14.067Z,493
2018-05-17T12:58:16.101Z,516
2018-05-17T12:59:18.156Z,491
2018-05-17T13:00:20.208Z,464
2018-05-17T13:01:22.259Z,450
2018-05-17T13:02:24.310Z,473
2018-05-17T13:03:26.362Z,458
2018-05-17T13:04:28.411Z,453
2018-05-17T13:05:30.851Z,458
2018-05-17T13:06:33.184Z,455
2018-05-17T13:07:35.537Z,435
2018-05-17T13:08:37.575Z,401
2018-05-17T13:09:39.632Z,385
2018-05-17T13:10:41.685Z,382
2018-05-17T13:11:43.738Z,418
2018-05-17T13:12:45.795Z,476
2018-05-17T13:13:48.135Z,459
2018-05-17T13:14:50.204Z,426
2018-05-17T13:15:52.244Z,438
2018-05-17T13:16:54.685Z,457
2018-05-17T13:17:56.752Z,455
2018-05-17T13:18:58.798Z,442
2018-05-17T13:20:00.856Z,439
2018-05-17T13:21:03.198Z,417
2018-05-17T13:22:05.266Z,429
2018-05-17T13:23:07.314Z,435
2018-05-17T13:24:09.350Z,388
2018-05-17T13:25:11.407Z,400
2018-05-17T13:26:13.756Z,417
2018-05-17T13:27:15.813Z,400
2018-05-17T13:28:18.155Z,427
2018-05-17T13:29:20.218Z,464
2018-05-17T13:30:22.751Z,436
2018-05-17T13:31:24.716Z,414
2018-05-17T13:32:26.768Z,436
2018-05-17T13:33:28.817Z,409
2018-05-17T13:34:30.877Z,404
2018-05-17T13:35:32.930Z,424
2018-05-17T13:36:34.994Z,435
2018-05-17T13:37:37.870Z,466
2018-05-17T13:38:39.885Z,460
2018-05-17T13:39:42.229Z,422
2018-05-17T13:40:44.671Z,393
2018-05-17T13:41:46.729Z,398
2018-05-17T13:42:48.784Z,338
2018-05-17T13:43:50.836Z,348
2018-05-17T13:44:53.175Z,354
2018-05-17T13:45:55.222Z,328
2018-05-17T13:46:57.276Z,354
2018-05-17T13:48:00.256Z,341
2018-05-17T13:49:02.996Z,367
2018-05-17T13:50:05.063Z,368
2018-05-17T13:51:07.425Z,349
2018-05-17T13:52:09.475Z,354
2018-05-17T13:53:11.522Z,379
2018-05-17T13:54:13.576Z,400
2018-05-17T13:55:15.624Z,364
2018-05-17T13:56:17.678Z,357
2018-05-17T13:57:19.755Z,322
2018-05-17T13:58:21.803Z,368
2018-05-17T13:59:23.852Z,393
2018-05-17T14:00:25.903Z,371
2018-05-17T14:01:27.963Z,369
2018-05-17T14:02:30.136Z,403
2018-05-17T14:03:32.059Z,403
2018-05-17T14:04:34.431Z,373
2018-05-17T14:05:36.788Z,349
2018-05-17T14:06:38.841Z,327
2018-05-17T14:07:40.894Z,323
2018-05-17T14:08:43.239Z,337
2018-05-17T14:09:45.754Z,352
2018-05-17T14:10:47.723Z,357
2018-05-17T14:11:50.065Z,315
2018-05-17T14:12:52.131Z,322
2018-05-17T14:13:54.565Z,359
2018-05-17T14:14:56.614Z,357
2018-05-17T14:15:58.678Z,358
2018-05-17T14:17:00.733Z,376
2018-05-17T14:18:02.785Z,386
2018-05-17T14:19:05.497Z,369
2018-05-17T14:20:07.560Z,349
2018-05-17T14:21:09.619Z,349
2018-05-17T14:22:11.677Z,333
2018-05-17T14:23:14.291Z,325
2018-05-17T14:24:16.320Z,294
2018-05-17T14:25:18.380Z,297
2018-05-17T14:26:20.440Z,314
2018-05-17T14:27:22.884Z,335
2018-05-17T14:28:24.945Z,322
2018-05-17T14:29:26.993Z,334
2018-05-17T14:30:29.343Z,317
2018-05-17T14:31:31.387Z,316
2018-05-17T14:32:33.450Z,310
2018-05-17T14:33:35.504Z,318
2018-05-17T14:34:37.560Z,343
2018-05-17T14:35:39.621Z,351
2018-05-17T14:36:41.989Z,348
2018-05-17T14:37:44.350Z,308
2018-05-17T14:38:46.423Z,315
2018-05-17T14:39:49.450Z,322
2018-05-17T14:40:51.510Z,316